TimeMST,TemperatureF,Dew PointF,Humidity,Sea Level PressureIn,VisibilityMPH,Wind Direction,Wind SpeedMPH,Gust SpeedMPH,PrecipitationIn,Events,Conditions,WindDirDegrees,DateUTC
12:51 AM,42.1,9.0,26,29.90,10.0,SSE,10.4,-,N/A,,Clear,150,2013-02-19 07:51:00
1:51 AM,43.0,9.0,25,29.89,10.0,ESE,9.2,-,N/A,,Clear,120,2013-02-19 08:51:00
2:51 AM,44.1,10.9,26,29.87,10.0,East,9.2,-,N/A,,Clear,100,2013-02-19 09:51:00
3:51 AM,42.1,10.0,27,29.87,10.0,ESE,8.1,-,N/A,,Clear,120,2013-02-19 10:51:00
4:51 AM,45.0,10.9,25,29.84,10.0,ESE,11.5,-,N/A,,Clear,120,2013-02-19 11:51:00
5:51 AM,41.0,9.0,27,29.86,10.0,Calm,Calm,-,N/A,,Clear,0,2013-02-19 12:51:00
6:51 AM,39.9,10.0,29,29.89,10.0,ESE,6.9,-,N/A,,Clear,110,2013-02-19 13:51:00
7:51 AM,48.0,10.0,22,29.88,10.0,ESE,18.4,-,N/A,,Clear,110,2013-02-19 14:51:00
8:51 AM,54.0,10.0,17,29.86,10.0,ESE,16.1,-,N/A,,Clear,120,2013-02-19 15:51:00
9:51 AM,59.0,9.0,14,29.85,10.0,ESE,17.3,-,N/A,,Clear,120,2013-02-19 16:51:00
10:51 AM,64.0,10.9,13,29.82,10.0,ESE,10.4,-,N/A,,Clear,120,2013-02-19 17:51:00
11:51 AM,68.0,12.0,11,29.78,10.0,SE,15.0,19.6,N/A,,Clear,130,2013-02-19 18:51:00
12:51 PM,70.0,17.1,13,29.73,10.0,South,15.0,25.3,N/A,,Clear,190,2013-02-19 19:51:00
1:51 PM,71.1,12.0,10,29.67,10.0,SSW,23.0,31.1,N/A,,Clear,210,2013-02-19 20:51:00
2:51 PM,71.1,14.0,11,29.65,10.0,SW,17.3,27.6,N/A,,Clear,230,2013-02-19 21:51:00
3:09 PM,69.8,33.8,27,29.73,5.0,South,26.5,34.5,N/A,,Haze,170,2013-02-19 22:09:00
3:22 PM,69.8,33.8,27,29.73,4.0,SSE,25.3,33.4,N/A,,Haze,160,2013-02-19 22:22:00
3:51 PM,68.0,32.0,26,29.64,5.0,South,33.4,39.1,N/A,,Haze,170,2013-02-19 22:51:00
4:10 PM,66.2,33.8,30,29.71,7.0,South,31.1,40.3,N/A,,Mostly Cloudy,170,2013-02-19 23:10:00
5:51 PM,62.1,36.0,38,29.65,10.0,South,24.2,32.2,N/A,,Clear,180,2013-02-20 00:51:00
6:51 PM,57.0,37.0,47,29.68,10.0,SE,17.3,-,N/A,,Mostly Cloudy,140,2013-02-20 01:51:00
7:51 PM,57.9,35.1,42,29.67,10.0,SE,11.5,-,N/A,,Overcast,140,2013-02-20 02:51:00
8:51 PM,57.0,33.1,40,29.65,10.0,SSE,19.6,24.2,N/A,,Mostly Cloudy,160,2013-02-20 03:51:00
9:51 PM,57.0,34.0,42,29.63,10.0,SSE,20.7,-,N/A,,Overcast,160,2013-02-20 04:51:00
10:51 PM,55.9,34.0,44,29.61,10.0,South,21.9,31.1,N/A,,Partly Cloudy,170,2013-02-20 05:51:00
11:51 PM,54.0,34.0,47,29.59,10.0,South,21.9,-,N/A,,Clear,170,2013-02-20 06:51:00